createdAt,value
2019-06-08T00:00:08.288Z,98667.95
2019-06-08T00:02:36.765Z,98638.72
2019-06-08T00:05:06.803Z,98643.13
2019-06-08T00:07:35.257Z,98625.39
2019-06-08T00:10:07.860Z,98629.85
2019-06-08T00:12:36.309Z,98636.09
2019-06-08T00:15:06.825Z,98649.08
2019-06-08T00:17:38.772Z,98639.75
2019-06-08T00:20:07.963Z,98605.41
2019-06-08T00:22:36.566Z,98647.62
2019-06-08T00:25:05.288Z,98647.62
2019-06-08T00:27:33.734Z,98667.37
2019-06-08T00:30:02.687Z,98671.14
2019-06-08T00:32:31.287Z,98666.84
2019-06-08T00:34:59.731Z,98681.91
2019-06-08T00:37:28.221Z,98658.20
2019-06-08T00:39:56.680Z,98657.28
2019-06-08T00:42:25.625Z,98654.63
2019-06-08T00:44:54.198Z,98635.94
2019-06-08T00:47:22.743Z,98623.88
2019-06-08T00:49:51.213Z,98613.13
2019-06-08T00:52:20.957Z,98612.66
2019-06-08T00:54:49.519Z,98617.65
2019-06-08T00:57:18.024Z,98634.95
2019-06-08T00:59:46.477Z,98666.31
2019-06-08T01:02:14.919Z,98674.72
2019-06-08T01:04:43.410Z,98677.88
2019-06-08T01:07:11.936Z,98689.37
2019-06-08T01:09:40.489Z,98695.12
2019-06-08T01:12:08.994Z,98696.48
2019-06-08T01:14:37.485Z,98705.28
2019-06-08T01:17:05.938Z,98719.93
2019-06-08T01:19:34.490Z,98706.47
2019-06-08T01:22:02.972Z,98709.55
2019-06-08T01:24:31.502Z,98708.25
2019-06-08T01:27:00.016Z,98728.23
2019-06-08T01:29:28.521Z,98738.47
2019-06-08T01:31:56.960Z,98722.31
2019-06-08T01:34:26.872Z,98725.89
2019-06-08T01:36:55.569Z,98733.08
2019-06-08T01:39:25.164Z,98726.77
2019-06-08T01:41:53.796Z,98724.80
2019-06-08T01:44:23.485Z,98715.45
2019-06-08T01:46:52.095Z,98727.92
2019-06-08T01:49:20.618Z,98751.37
2019-06-08T01:51:49.104Z,98724.91
2019-06-08T01:54:17.626Z,98715.16
2019-06-08T01:56:46.377Z,98702.73
2019-06-08T01:59:14.818Z,98720.00
2019-06-08T02:01:43.307Z,98727.53
2019-06-08T02:04:11.826Z,98736.72
2019-06-08T02:06:40.322Z,98726.20
2019-06-08T02:09:09.613Z,98713.77
2019-06-08T02:11:38.128Z,98681.83
2019-06-08T02:14:06.977Z,98668.21
2019-06-08T02:16:36.212Z,98675.50
2019-06-08T02:19:04.931Z,98671.09
2019-06-08T02:21:33.385Z,98677.81
2019-06-08T02:24:01.863Z,98679.05
2019-06-08T02:26:31.016Z,98678.97
2019-06-08T02:29:00.753Z,98681.67
2019-06-08T02:31:30.692Z,98672.08
2019-06-08T02:33:59.424Z,98684.05
2019-06-08T02:36:28.819Z,98686.96
2019-06-08T02:38:58.149Z,98689.52
2019-06-08T02:41:26.576Z,98707.04
2019-06-08T02:43:55.071Z,98708.83
2019-06-08T02:46:23.518Z,98719.44
2019-06-08T02:49:03.662Z,98703.11
2019-06-08T02:51:22.597Z,98691.63
2019-06-08T02:53:51.483Z,98719.41
2019-06-08T02:56:21.687Z,98712.68
2019-06-08T02:58:51.896Z,98727.81
2019-06-08T03:01:22.431Z,98724.34
2019-06-08T03:03:52.886Z,98731.39
2019-06-08T03:06:22.027Z,98718.98
2019-06-08T03:08:51.813Z,98721.61
2019-06-08T03:11:21.028Z,98709.45
2019-06-08T03:13:50.580Z,98703.74
2019-06-08T03:16:19.050Z,98723.67
2019-06-08T03:18:47.501Z,98738.15
2019-06-08T03:21:15.998Z,98722.17
2019-06-08T03:23:44.440Z,98728.05
2019-06-08T03:26:12.942Z,98718.55
2019-06-08T03:28:43.689Z,98744.68
2019-06-08T03:31:11.972Z,98739.75
2019-06-08T03:33:50.860Z,98740.62
2019-06-08T03:36:10.708Z,98749.26
2019-06-08T03:38:40.246Z,98761.11
2019-06-08T03:41:09.178Z,98767.31
2019-06-08T03:43:40.090Z,98758.77
2019-06-08T03:46:07.830Z,98759.32
2019-06-08T03:48:37.195Z,98752.62
2019-06-08T03:51:06.481Z,98741.79
2019-06-08T03:53:35.746Z,98755.94
2019-06-08T03:56:04.727Z,98752.25
2019-06-08T03:58:34.314Z,98767.73
2019-06-08T04:01:03.472Z,98779.56
2019-06-08T04:03:32.017Z,98784.43
2019-06-08T04:06:00.467Z,98790.81
2019-06-08T04:08:28.911Z,98798.34
2019-06-08T04:10:57.393Z,98779.09
2019-06-08T04:13:25.837Z,98766.34
2019-06-08T04:15:54.343Z,98759.26
2019-06-08T04:18:22.860Z,98775.30
2019-06-08T04:20:51.707Z,98782.41
2019-06-08T04:23:20.329Z,98785.94
2019-06-08T04:25:50.449Z,98788.09
2019-06-08T04:28:19.159Z,98775.72
2019-06-08T04:30:49.938Z,98814.22
2019-06-08T04:33:17.924Z,98816.44
2019-06-08T04:35:47.261Z,98805.36
2019-06-08T04:38:15.828Z,98812.98
2019-06-08T04:40:46.003Z,98796.17
2019-06-08T04:43:14.495Z,98788.94
2019-06-08T04:45:43.573Z,98777.47
2019-06-08T04:48:13.151Z,98754.84
2019-06-08T04:50:43.006Z,98758.38
2019-06-08T04:53:11.819Z,98742.44
2019-06-08T04:55:40.982Z,98756.23
2019-06-08T04:58:09.657Z,98766.34
2019-06-08T05:00:39.096Z,98786.66
2019-06-08T05:03:08.169Z,98787.08
2019-06-08T05:05:36.620Z,98759.65
2019-06-08T05:08:05.371Z,98764.52
2019-06-08T05:10:33.821Z,98747.77
2019-06-08T05:13:02.314Z,98745.59
2019-06-08T05:15:30.741Z,98761.98
2019-06-08T05:17:59.193Z,98735.69
2019-06-08T05:20:38.465Z,98756.98
2019-06-08T05:22:57.832Z,98760.13
2019-06-08T05:25:26.498Z,98752.99
2019-06-08T05:27:54.933Z,98758.73
2019-06-08T05:30:23.770Z,98764.58
2019-06-08T05:32:52.219Z,98760.17
2019-06-08T05:35:20.708Z,98760.88
2019-06-08T05:37:49.823Z,98740.91
2019-06-08T05:40:18.766Z,98748.87
2019-06-08T05:42:47.923Z,98745.88
2019-06-08T05:45:16.507Z,98754.68
2019-06-08T05:47:45.821Z,98752.02
2019-06-08T05:50:14.561Z,98772.50
2019-06-08T05:52:44.162Z,98749.22
2019-06-08T05:55:12.920Z,98781.17
2019-06-08T05:57:42.108Z,98759.80
2019-06-08T06:00:12.185Z,98743.73
2019-06-08T06:02:40.687Z,98745.58
2019-06-08T06:05:09.395Z,98757.21
2019-06-08T06:07:37.841Z,98737.80
2019-06-08T06:10:07.112Z,98745.78
2019-06-08T06:12:35.597Z,98755.13
2019-06-08T06:15:06.438Z,98754.90
2019-06-08T06:17:34.951Z,98758.66
2019-06-08T06:20:05.167Z,98766.55
2019-06-08T06:22:33.616Z,98779.06
2019-06-08T06:25:02.128Z,98791.30
2019-06-08T06:27:30.636Z,98791.81
2019-06-08T06:29:59.092Z,98794.63
2019-06-08T06:32:27.566Z,98805.25
2019-06-08T06:34:56.091Z,98810.19
2019-06-08T06:37:24.726Z,98812.95
2019-06-08T06:39:53.248Z,98794.17
2019-06-08T06:42:24.814Z,98805.88
2019-06-08T06:44:52.454Z,98795.71
2019-06-08T06:47:21.149Z,98808.12
2019-06-08T06:49:50.668Z,98798.17
2019-06-08T06:52:19.343Z,98814.96
2019-06-08T06:54:48.958Z,98830.14
2019-06-08T06:57:17.530Z,98824.36
2019-06-08T06:59:47.137Z,98811.34
2019-06-08T07:02:16.177Z,98838.38
2019-06-08T07:04:45.859Z,98857.88
2019-06-08T07:07:14.388Z,98848.09
2019-06-08T07:09:44.300Z,98842.31
2019-06-08T07:12:12.904Z,98853.36
2019-06-08T07:14:41.392Z,98859.15
2019-06-08T07:17:09.834Z,98879.87
2019-06-08T07:19:38.325Z,98904.64
2019-06-08T07:22:06.773Z,98869.60
2019-06-08T07:24:35.249Z,98902.43
2019-06-08T07:27:03.704Z,98914.33
2019-06-08T07:29:32.201Z,98893.84
2019-06-08T07:32:00.654Z,98916.05
2019-06-08T07:34:29.110Z,98926.08
2019-06-08T07:36:57.613Z,98929.17
2019-06-08T07:39:26.049Z,98937.52
2019-06-08T07:41:55.848Z,98920.08
2019-06-08T07:44:24.497Z,98941.63
2019-06-08T07:46:53.762Z,98943.30
2019-06-08T07:49:22.334Z,98935.84
2019-06-08T07:52:03.909Z,98949.30
2019-06-08T07:54:21.166Z,98955.13
2019-06-08T07:56:51.116Z,98949.59
2019-06-08T07:59:20.004Z,98956.94
2019-06-08T08:01:48.502Z,98950.31
2019-06-08T08:04:17.021Z,98954.39
2019-06-08T08:06:45.516Z,98953.38
2019-06-08T08:09:13.988Z,98955.36
2019-06-08T08:11:42.458Z,98959.99
2019-06-08T08:14:10.944Z,98957.73
2019-06-08T08:16:39.408Z,98967.73
2019-06-08T08:19:07.916Z,98976.27
2019-06-08T08:21:38.030Z,98966.42
2019-06-08T08:24:07.333Z,98966.83
2019-06-08T08:26:38.933Z,98957.01
2019-06-08T08:29:08.335Z,98983.41
2019-06-08T08:31:37.381Z,98986.65
2019-06-08T08:34:08.775Z,99012.86
2019-06-08T08:36:38.088Z,99012.86
2019-06-08T08:39:08.657Z,99007.97
2019-06-08T08:41:39.008Z,99017.34
2019-06-08T08:44:07.958Z,99017.34
2019-06-08T08:46:38.730Z,99011.47
2019-06-08T08:49:12.077Z,99039.28
2019-06-08T08:51:37.792Z,99023.74
2019-06-08T08:54:08.432Z,99017.60
2019-06-08T08:56:38.335Z,99029.25
2019-06-08T08:59:07.844Z,99027.08
2019-06-08T09:01:38.314Z,99022.95
2019-06-08T09:04:08.767Z,99038.04
2019-06-08T09:06:38.099Z,99038.55
2019-06-08T09:09:08.909Z,99043.73
2019-06-08T09:11:38.360Z,99040.23
2019-06-08T09:14:13.801Z,99057.40
2019-06-08T09:16:38.475Z,99043.33
2019-06-08T09:19:08.551Z,99043.14
2019-06-08T09:21:38.398Z,99043.37
2019-06-08T09:24:07.759Z,99059.17
2019-06-08T09:26:38.207Z,99066.93
2019-06-08T09:29:10.624Z,99081.91
2019-06-08T09:31:39.067Z,99072.17
2019-06-08T09:34:14.158Z,99078.14
2019-06-08T09:36:40.446Z,99095.89
2019-06-08T09:39:12.087Z,99097.88
2019-06-08T09:41:38.726Z,99112.81
2019-06-08T09:44:10.619Z,99113.45
2019-06-08T09:46:38.490Z,99113.95
2019-06-08T09:49:09.311Z,99114.43
2019-06-08T09:51:37.954Z,99125.89
2019-06-08T09:54:11.879Z,99134.20
2019-06-08T09:56:37.937Z,99142.23
2019-06-08T09:59:10.469Z,99136.84
2019-06-08T10:01:38.393Z,99131.70
2019-06-08T10:04:09.190Z,99149.78
2019-06-08T10:06:37.728Z,99159.28
2019-06-08T10:09:09.062Z,99152.48
2019-06-08T10:11:38.048Z,99160.83
2019-06-08T10:14:11.683Z,99152.61
2019-06-08T10:16:38.159Z,99149.22
2019-06-08T10:19:10.053Z,99151.97
2019-06-08T10:21:38.518Z,99143.78
2019-06-08T10:24:09.565Z,99144.48
2019-06-08T10:26:37.803Z,99149.11
2019-06-08T10:29:10.020Z,99141.66
2019-06-08T10:31:43.149Z,99130.44
2019-06-08T10:34:10.918Z,99134.05
2019-06-08T10:36:38.321Z,99135.84
2019-06-08T10:39:11.353Z,99134.19
2019-06-08T10:41:38.838Z,99139.33
2019-06-08T10:44:11.174Z,99142.80
2019-06-08T10:46:40.303Z,99150.75
2019-06-08T10:49:11.882Z,99136.16
2019-06-08T10:51:40.785Z,99156.28
2019-06-08T10:54:09.449Z,99146.36
2019-06-08T10:56:38.820Z,99162.35
2019-06-08T10:59:10.557Z,99172.41
2019-06-08T11:01:38.523Z,99182.72
2019-06-08T11:04:07.630Z,99177.27
2019-06-08T11:06:40.122Z,99179.69
2019-06-08T11:09:12.763Z,99182.02
2019-06-08T11:11:38.481Z,99176.76
2019-06-08T11:14:12.102Z,99185.61
2019-06-08T11:16:38.546Z,99182.98
2019-06-08T11:19:11.451Z,99187.12
2019-06-08T11:21:38.576Z,99176.30
2019-06-08T11:24:23.308Z,99178.55
2019-06-08T11:26:40.114Z,99177.19
2019-06-08T11:29:11.597Z,99181.71
2019-06-08T11:31:39.197Z,99175.88
2019-06-08T11:34:08.669Z,99183.20
2019-06-08T11:36:39.399Z,99188.04
2019-06-08T11:39:10.911Z,99184.44
2019-06-08T11:41:38.509Z,99195.40
2019-06-08T11:44:11.635Z,99214.33
2019-06-08T11:46:38.414Z,99211.76
2019-06-08T11:49:11.753Z,99198.49
2019-06-08T11:51:37.989Z,99206.20
2019-06-08T11:54:25.537Z,99201.99
2019-06-08T11:56:37.598Z,99210.08
2019-06-08T11:59:07.361Z,99210.41
2019-06-08T12:01:35.817Z,99216.94
2019-06-08T12:04:05.704Z,99204.39
2019-06-08T12:06:34.418Z,99217.11
2019-06-08T12:09:04.125Z,99206.48
2019-06-08T12:11:32.997Z,99207.36
2019-06-08T12:14:02.670Z,99205.25
2019-06-08T12:16:31.255Z,99216.21
2019-06-08T12:18:59.702Z,99223.23
2019-06-08T12:21:28.189Z,99213.97
2019-06-08T12:23:56.717Z,99216.30
2019-06-08T12:26:25.211Z,99224.83
2019-06-08T12:28:53.674Z,99235.22
2019-06-08T12:31:22.913Z,99225.53
2019-06-08T12:33:51.442Z,99240.84
2019-06-08T12:36:20.953Z,99229.73
2019-06-08T12:38:49.669Z,99231.53
2019-06-08T12:41:19.261Z,99239.29
2019-06-08T12:43:48.086Z,99238.05
2019-06-08T12:46:19.172Z,99238.63
2019-06-08T12:48:46.892Z,99233.33
2019-06-08T12:51:17.247Z,99227.11
2019-06-08T12:53:45.644Z,99257.86
2019-06-08T12:56:14.810Z,99219.78
2019-06-08T12:58:43.615Z,99255.40
2019-06-08T13:01:12.769Z,99254.37
2019-06-08T13:03:41.509Z,99258.98
2019-06-08T13:06:12.065Z,99254.41
2019-06-08T13:08:40.272Z,99258.03
2019-06-08T13:11:09.794Z,99253.59
2019-06-08T13:13:38.943Z,99265.75
2019-06-08T13:16:08.532Z,99276.09
2019-06-08T13:18:40.325Z,99276.33
2019-06-08T13:21:18.690Z,99279.42
2019-06-08T13:23:38.324Z,99242.22
2019-06-08T13:26:08.883Z,99278.19
2019-06-08T13:28:38.514Z,99282.63
2019-06-08T13:31:07.865Z,99289.59
2019-06-08T13:33:38.263Z,99281.93
2019-06-08T13:36:07.071Z,99275.92
2019-06-08T13:38:37.943Z,99282.17
2019-06-08T13:41:05.707Z,99287.30
2019-06-08T13:43:34.190Z,99282.11
2019-06-08T13:46:02.657Z,99298.64
2019-06-08T13:48:31.158Z,99285.24
2019-06-08T13:50:59.623Z,99294.30
2019-06-08T13:53:31.615Z,99303.44
2019-06-08T13:55:58.320Z,99300.48
2019-06-08T13:58:33.250Z,99297.01
2019-06-08T14:00:59.668Z,99289.36
2019-06-08T14:03:27.848Z,99283.69
2019-06-08T14:05:57.298Z,99298.09
2019-06-08T14:08:32.720Z,99301.79
2019-06-08T14:11:00.530Z,99293.44
2019-06-08T14:13:33.884Z,99312.89
2019-06-08T14:15:58.585Z,99308.86
2019-06-08T14:18:33.042Z,99294.77
2019-06-08T14:20:58.706Z,99312.01
2019-06-08T14:23:27.765Z,99310.62
2019-06-08T14:25:57.806Z,99294.20
2019-06-08T14:28:28.582Z,99300.97
2019-06-08T14:30:59.197Z,99303.03
2019-06-08T14:33:31.699Z,99300.27
2019-06-08T14:35:59.181Z,99289.65
2019-06-08T14:38:37.704Z,99296.29
2019-06-08T14:40:59.056Z,99301.20
2019-06-08T14:43:30.012Z,99300.52
2019-06-08T14:45:58.063Z,99283.05
2019-06-08T14:48:32.089Z,99294.78
2019-06-08T14:50:58.623Z,99292.34
2019-06-08T14:53:26.886Z,99286.08
2019-06-08T14:56:05.743Z,99285.63
2019-06-08T14:58:29.304Z,99290.17
2019-06-08T15:00:57.888Z,99287.70
2019-06-08T15:03:27.240Z,99288.47
2019-06-08T15:05:57.738Z,99285.60
2019-06-08T15:08:28.309Z,99289.45
2019-06-08T15:10:58.184Z,99293.35
2019-06-08T15:13:28.630Z,99292.67
2019-06-08T15:16:00.380Z,99281.14
2019-06-08T15:18:28.715Z,99291.49
2019-06-08T15:20:58.087Z,99282.45
2019-06-08T15:23:29.108Z,99276.97
2019-06-08T15:35:38.901Z,99284.16
2019-06-08T15:38:08.383Z,99285.48
2019-06-08T15:40:37.885Z,99292.37
2019-06-08T15:43:08.669Z,99286.30
2019-06-08T15:45:37.011Z,99295.11
2019-06-08T15:48:07.757Z,99288.09
2019-06-08T15:50:37.928Z,99302.23
2019-06-08T15:53:08.315Z,99300.25
2019-06-08T15:55:37.984Z,99300.58
2019-06-08T15:58:09.019Z,99304.68
2019-06-08T16:00:37.359Z,99301.98
2019-06-08T16:03:05.841Z,99298.77
2019-06-08T16:05:34.361Z,99307.75
2019-06-08T16:08:02.823Z,99302.22
2019-06-08T16:10:32.308Z,99313.50
2019-06-08T16:13:00.927Z,99314.75
2019-06-08T16:15:29.438Z,99312.75
2019-06-08T16:17:57.902Z,99313.41
2019-06-08T16:20:27.547Z,99325.61
2019-06-08T16:22:56.410Z,99324.70
2019-06-08T16:25:25.587Z,99319.65
2019-06-08T16:27:54.326Z,99325.58
2019-06-08T16:30:22.862Z,99318.88
2019-06-08T16:32:51.366Z,99319.89
2019-06-08T16:35:19.829Z,99324.70
2019-06-08T16:37:48.328Z,99323.05
2019-06-08T16:40:16.929Z,99325.33
2019-06-08T16:42:45.458Z,99335.02
2019-06-08T16:45:14.160Z,99322.37
2019-06-08T16:47:43.878Z,99334.25
2019-06-08T16:50:23.892Z,99335.12
2019-06-08T16:52:43.227Z,99331.11
2019-06-08T16:55:11.894Z,99326.49
2019-06-08T16:57:41.283Z,99329.89
2019-06-08T17:00:30.718Z,99321.58
2019-06-08T17:02:41.652Z,99332.77
2019-06-08T17:05:10.628Z,99336.69
2019-06-08T17:07:39.759Z,99333.67
2019-06-08T17:10:08.974Z,99342.86
2019-06-08T17:12:37.496Z,99349.47
2019-06-08T17:15:06.808Z,99344.50
2019-06-08T17:17:36.582Z,99346.39
2019-06-08T17:20:07.377Z,99350.52
2019-06-08T17:22:36.790Z,99345.21
2019-06-08T17:25:09.072Z,99341.70
2019-06-08T17:27:38.819Z,99349.33
2019-06-08T17:30:09.449Z,99350.30
2019-06-08T17:32:38.631Z,99349.92
2019-06-08T17:35:08.505Z,99348.32
2019-06-08T17:37:38.016Z,99352.39
2019-06-08T17:40:07.583Z,99355.06
2019-06-08T17:42:37.474Z,99354.38
2019-06-08T17:45:09.646Z,99359.00
2019-06-08T17:47:38.517Z,99353.87
2019-06-08T17:50:07.927Z,99361.03
2019-06-08T17:52:37.063Z,99359.83
2019-06-08T17:55:07.380Z,99363.84
2019-06-08T17:57:44.796Z,99357.29
2019-06-08T18:00:09.839Z,99356.95
2019-06-08T18:02:41.939Z,99361.07
2019-06-08T18:05:09.883Z,99361.11
2019-06-08T18:07:40.119Z,99357.59
2019-06-08T18:10:09.157Z,99353.16
2019-06-08T18:12:41.059Z,99355.05
2019-06-08T18:15:09.236Z,99355.14
2019-06-08T18:17:42.058Z,99356.52
2019-06-08T18:20:13.651Z,99365.98
2019-06-08T18:22:43.162Z,99362.04
2019-06-08T18:25:11.650Z,99361.71
2019-06-08T18:27:42.375Z,99368.48
2019-06-08T18:30:12.309Z,99363.59
2019-06-08T18:32:42.473Z,99361.42
2019-06-08T18:35:11.974Z,99372.67
2019-06-08T18:37:41.311Z,99379.02
2019-06-08T18:40:12.937Z,99376.09
2019-06-08T18:42:42.620Z,99383.78
2019-06-08T18:45:13.061Z,99384.32
2019-06-08T18:47:42.344Z,99386.23
2019-06-08T18:50:12.879Z,99382.29
2019-06-08T18:52:44.734Z,99389.91
2019-06-08T18:55:13.304Z,99393.08
2019-06-08T18:57:42.754Z,99391.85
2019-06-08T19:00:13.181Z,99402.59
2019-06-08T19:02:43.748Z,99401.25
2019-06-08T19:05:12.676Z,99407.14
2019-06-08T19:07:43.551Z,99404.05
2019-06-08T19:10:15.398Z,99407.25
2019-06-08T19:12:44.761Z,99408.20
2019-06-08T19:15:17.843Z,99411.83
2019-06-08T19:17:50.326Z,99413.23
2019-06-08T19:20:16.999Z,99411.58
2019-06-08T19:22:53.322Z,99424.53
2019-06-08T19:25:17.611Z,99421.02
2019-06-08T19:27:51.826Z,99420.59
2019-06-08T19:30:20.118Z,99435.34
2019-06-08T19:32:50.500Z,99435.92
2019-06-08T19:35:18.418Z,99437.27
2019-06-08T19:37:53.283Z,99446.23
2019-06-08T19:40:17.718Z,99443.59
2019-06-08T19:42:55.435Z,99446.39
2019-06-08T19:45:18.189Z,99446.39
2019-06-08T19:47:46.693Z,99452.26
2019-06-08T19:50:17.245Z,99465.27
2019-06-08T19:52:50.173Z,99458.70
2019-06-08T19:55:17.927Z,99459.95
2019-06-08T19:57:48.563Z,99466.66
2019-06-08T20:00:18.013Z,99472.98
2019-06-08T20:02:47.785Z,99471.28
2019-06-08T20:05:17.488Z,99465.99
2019-06-08T20:07:47.045Z,99478.84
2019-06-08T20:10:17.581Z,99480.27
2019-06-08T20:12:48.337Z,99483.84
2019-06-08T20:15:18.399Z,99474.16
2019-06-08T20:17:48.891Z,99474.16
2019-06-08T20:20:18.317Z,99478.13
2019-06-08T20:22:50.311Z,99493.72
2019-06-08T20:25:17.918Z,99493.72
2019-06-08T20:27:49.739Z,99499.57
2019-06-08T20:30:17.466Z,99493.38
2019-06-08T20:32:47.209Z,99500.91
2019-06-08T20:35:17.442Z,99501.51
2019-06-08T20:37:46.123Z,99496.88
2019-06-08T20:40:14.968Z,99496.88
2019-06-08T20:42:44.178Z,99504.30
2019-06-08T20:45:13.092Z,99494.12
2019-06-08T20:47:42.396Z,99494.12
2019-06-08T20:50:11.090Z,99499.89
2019-06-08T20:52:39.588Z,99497.73
2019-06-08T20:55:09.180Z,99499.55
2019-06-08T20:57:37.739Z,99499.55
2019-06-08T21:00:11.786Z,99507.16
2019-06-08T21:02:39.520Z,99499.62
2019-06-08T21:05:08.154Z,99502.72
2019-06-08T21:07:36.596Z,99505.81
2019-06-08T21:10:08.327Z,99507.16
2019-06-08T21:12:37.937Z,99502.31
2019-06-08T21:15:07.826Z,99502.39
2019-06-08T21:17:38.422Z,99495.27
2019-06-08T21:20:08.600Z,99493.02
2019-06-08T21:22:37.202Z,99495.72
2019-06-08T21:25:08.917Z,99496.63
2019-06-08T21:27:38.519Z,99503.31
2019-06-08T21:30:19.846Z,99498.00
2019-06-08T21:32:38.107Z,99496.67
2019-06-08T21:35:07.798Z,99501.66
2019-06-08T21:37:37.737Z,99504.02
2019-06-08T21:40:08.553Z,99499.96
2019-06-08T21:42:37.479Z,99500.39
2019-06-08T21:45:09.723Z,99498.67
2019-06-08T21:47:37.966Z,99502.66
2019-06-08T21:50:08.229Z,99508.91
2019-06-08T21:52:36.847Z,99502.68
